Mount Stewart, Canada
Current Conditions -  °F | °C
As of 8:00 AM on Thursday 23 Oct 2014 (Local Time) from CYYG Reporting Station
Broken Clouds Broken Clouds  
Wind Chill: 50°   Ceiling: 7500
Heat Index: 50°   Visibility: 15mi
Dew Point: 45°   Wind: 12mph
Humidity: 82%   Direction: 60°ENE
Pressure: 30.21"   Gusts: NA
Location:  46.36°N, 62.86°W
Report Text: CYYG 231100Z 06010KT 15SM FEW020 BKN075 BKN170 BKN250 10/07 A3021 RMK SC1AC6AC1CI1 SC TR AC TR SLP231
Loading
Personal Weather Stations






























Interactive Weather Map
Tropical Storm Tracking
New forecast layout! Learn more

10-Day Weather Forecast

Advertisements
Track Severe Weather on mobile